Time;durP1;ratioP1;P1;durP2;ratioP2;P2;SDS_P1;SDS_P2;PMS_P1;PMS_P2;Temp;Humidity;BMP_temperature;BMP_pressure;BME280_temperature;BME280_humidity;BME280_pressure;Samples;Min_cycle;Max_cycle;Signal;HPM_P1;HPM_P2
2023/01/10 00:00:28;;;;;;;13.07;3.80;;;4.80;99.90;;;;;;6031616;23;20105;-89
2023/01/10 00:02:53;;;;;;;18.05;3.53;;;4.80;99.90;;;;;;6056078;23;20026;-88
2023/01/10 00:05:19;;;;;;;11.43;3.40;;;4.80;99.90;;;;;;6055604;23;20011;-91
2023/01/10 00:07:45;;;;;;;9.00;3.47;;;4.80;99.90;;;;;;6030137;23;20022;-89
2023/01/10 00:10:14;;;;;;;16.40;3.92;;;4.70;99.90;;;;;;6031687;23;20141;-88
2023/01/10 00:15:24;;;;;;;13.05;3.53;;;4.60;99.90;;;;;;6079549;23;20023;-87
2023/01/10 00:17:50;;;;;;;10.77;3.47;;;4.60;99.90;;;;;;6031045;23;20025;-88
2023/01/10 00:20:16;;;;;;;14.85;3.90;;;4.70;99.90;;;;;;6056108;23;20022;-89
2023/01/10 00:22:43;;;;;;;19.80;4.47;;;4.70;99.90;;;;;;6031484;23;20074;-90
2023/01/10 00:25:14;;;;;;;13.45;3.05;;;4.70;99.90;;;;;;6032763;23;20018;-88
2023/01/10 00:27:40;;;;;;;19.23;4.32;;;4.80;99.90;;;;;;6031398;23;20023;-87
2023/01/10 00:30:13;;;;;;;17.00;4.18;;;4.90;99.90;;;;;;6055091;23;20529;-89
2023/01/10 00:32:40;;;;;;;22.45;4.57;;;4.90;99.90;;;;;;6055127;23;20078;-87
2023/01/10 00:35:06;;;;;;;16.75;4.53;;;5.00;99.90;;;;;;6055865;23;20114;-89
2023/01/10 00:37:32;;;;;;;17.63;3.85;;;5.10;99.90;;;;;;6029912;23;20183;-87
2023/01/10 00:39:57;;;;;;;16.75;3.83;;;5.20;99.90;;;;;;6054991;23;20242;-88
2023/01/10 00:45:11;;;;;;;18.58;4.35;;;5.30;99.90;;;;;;6078809;23;20078;-89
2023/01/10 00:47:37;;;;;;;24.45;4.85;;;5.40;99.90;;;;;;6030996;23;20431;-87
2023/01/10 00:50:07;;;;;;;18.52;4.30;;;5.40;99.90;;;;;;6055856;23;20403;-88
2023/01/10 00:52:33;;;;;;;15.25;3.88;;;5.50;99.90;;;;;;6030419;23;20728;-87
2023/01/10 00:55:02;;;;;;;25.48;4.10;;;5.50;99.90;;;;;;6054424;23;20102;-88
2023/01/10 00:57:27;;;;;;;21.35;3.90;;;5.50;99.90;;;;;;6031034;23;20445;-88
2023/01/10 00:59:53;;;;;;;28.98;4.53;;;5.50;99.90;;;;;;6055779;23;20014;-88
2023/01/10 01:02:19;;;;;;;22.25;4.43;;;5.50;99.90;;;;;;6031146;23;20278;-88
2023/01/10 01:04:44;;;;;;;14.70;4.00;;;5.60;99.90;;;;;;6030846;23;20023;-88
2023/01/10 01:07:10;;;;;;;17.58;4.20;;;5.50;99.90;;;;;;6029657;23;20034;-89
2023/01/10 01:10:25;;;;;;;15.23;3.80;;;5.60;99.90;;;;;;6030917;23;20064;-88
2023/01/10 01:12:21;;;;;;;18.98;4.13;;;5.60;99.90;;;;;;6054459;23;20030;-88
2023/01/10 01:14:47;;;;;;;17.65;3.90;;;5.70;99.90;;;;;;6055331;23;20361;-87
2023/01/10 01:17:13;;;;;;;27.77;4.30;;;5.70;99.90;;;;;;6030756;23;20018;-88
2023/01/10 01:19:38;;;;;;;20.00;3.28;;;5.70;99.90;;;;;;6031094;23;20410;-88
2023/01/10 01:22:04;;;;;;;13.43;4.00;;;5.70;99.90;;;;;;6030534;23;20015;-87
2023/01/10 01:24:29;;;;;;;22.55;4.20;;;5.70;99.90;;;;;;6030129;23;20018;-87
2023/01/10 01:26:55;;;;;;;15.90;3.58;;;5.70;99.90;;;;;;6030419;23;20118;-89
2023/01/10 01:29:21;;;;;;;17.85;3.72;;;5.70;99.90;;;;;;6030661;23;20018;-88
2023/01/10 01:31:49;;;;;;;15.98;3.70;;;5.70;99.90;;;;;;6030720;23;20082;-87
2023/01/10 01:34:15;;;;;;;12.65;3.08;;;5.80;99.90;;;;;;6031332;23;20770;-89
2023/01/10 01:36:41;;;;;;;15.30;3.63;;;5.90;99.90;;;;;;6031648;23;20025;-87
2023/01/10 01:39:06;;;;;;;18.65;3.83;;;5.90;99.90;;;;;;6029420;23;20022;-88
2023/01/10 01:44:18;;;;;;;19.92;3.95;;;5.80;99.90;;;;;;6078558;23;20034;-88
2023/01/10 01:47:02;;;;;;;14.90;3.70;;;5.70;99.90;;;;;;6054329;23;20066;-87
2023/01/10 01:49:31;;;;;;;13.70;3.38;;;5.60;99.90;;;;;;6030118;23;20030;-88
2023/01/10 01:52:04;;;;;;;16.88;3.92;;;5.50;99.90;;;;;;6029533;23;20021;-88
2023/01/10 01:54:30;;;;;;;19.95;4.88;;;5.50;99.90;;;;;;6053308;23;20019;-88
2023/01/10 01:57:13;;;;;;;19.60;4.28;;;5.50;99.90;;;;;;6030324;23;20014;-87
2023/01/10 01:59:43;;;;;;;16.52;3.33;;;5.50;99.90;;;;;;6029441;23;20019;-88
2023/01/10 02:02:31;;;;;;;19.80;5.38;;;5.40;99.90;;;;;;6029760;23;20019;-89
2023/01/10 02:05:02;;;;;;;16.83;4.57;;;5.50;99.90;;;;;;6030463;23;20424;-87
2023/01/10 02:07:32;;;;;;;15.75;3.50;;;5.50;99.90;;;;;;6027189;23;20033;-89
2023/01/10 02:10:27;;;;;;;19.17;4.13;;;5.50;99.90;;;;;;6029860;23;20023;-88
2023/01/10 02:13:01;;;;;;;17.08;4.20;;;5.40;99.90;;;;;;6029869;23;20019;-88
2023/01/10 02:15:27;;;;;;;17.85;3.45;;;5.40;99.90;;;;;;6030730;23;20317;-89
2023/01/10 02:17:53;;;;;;;12.25;3.92;;;5.40;99.90;;;;;;6053666;23;20046;-87
2023/01/10 02:20:22;;;;;;;21.77;3.78;;;5.40;99.90;;;;;;6053815;23;20018;-88
2023/01/10 02:23:22;;;;;;;21.73;3.78;;;5.40;99.90;;;;;;6053405;23;20094;-87
2023/01/10 02:26:17;;;;;;;13.77;4.05;;;5.40;99.90;;;;;;6029241;23;20082;-88
2023/01/10 02:29:07;;;;;;;21.63;4.07;;;5.40;99.90;;;;;;6054131;23;20195;-88
2023/01/10 02:32:00;;;;;;;16.40;3.65;;;5.40;99.90;;;;;;6030484;23;20285;-88
2023/01/10 02:34:44;;;;;;;10.45;2.95;;;5.30;99.90;;;;;;6053620;23;20014;-87
2023/01/10 02:37:35;;;;;;;14.70;2.97;;;5.30;99.90;;;;;;6028809;23;20133;-89
2023/01/10 02:40:19;;;;;;;19.48;3.60;;;5.30;99.90;;;;;;6053492;23;20405;-88
2023/01/10 02:43:00;;;;;;;20.13;3.88;;;5.30;99.90;;;;;;6030963;23;20235;-88
2023/01/10 02:45:38;;;;;;;16.15;3.05;;;5.40;99.90;;;;;;6053852;23;20533;-87
2023/01/10 02:48:04;;;;;;;18.10;3.25;;;5.40;99.90;;;;;;6028813;23;20026;-88
2023/01/10 02:50:42;;;;;;;12.75;2.85;;;5.40;99.90;;;;;;6030676;23;20014;-89
2023/01/10 02:53:32;;;;;;;13.15;3.40;;;5.40;99.90;;;;;;6028706;23;20011;-88
2023/01/10 02:56:30;;;;;;;17.60;3.33;;;5.40;99.90;;;;;;6056108;23;20022;-90
2023/01/10 02:59:11;;;;;;;11.25;3.38;;;5.40;99.90;;;;;;6030285;23;20015;-89
2023/01/10 03:01:57;;;;;;;17.60;4.25;;;5.50;99.90;;;;;;6031860;23;20023;-89
2023/01/10 03:04:44;;;;;;;18.27;2.95;;;5.50;99.90;;;;;;6031858;23;20109;-90
2023/01/10 03:07:58;;;;;;;16.30;3.33;;;5.50;99.90;;;;;;6030886;23;20763;-88
2023/01/10 03:10:35;;;;;;;19.17;3.88;;;5.40;99.90;;;;;;5979790;23;20012;-88
2023/01/10 03:13:14;;;;;;;16.92;4.57;;;5.40;99.90;;;;;;6031927;23;20449;-88
2023/01/10 03:15:41;;;;;;;19.20;3.80;;;5.40;99.90;;;;;;6032666;23;20061;-88
2023/01/10 03:18:17;;;;;;;23.40;4.78;;;5.40;99.90;;;;;;6031618;23;20305;-90
2023/01/10 03:20:46;;;;;;;14.45;3.75;;;5.50;99.90;;;;;;6056403;23;20444;-90
2023/01/10 03:23:14;;;;;;;21.45;4.03;;;5.50;99.90;;;;;;6030895;23;20118;-89
2023/01/10 03:25:44;;;;;;;14.05;3.67;;;5.50;99.90;;;;;;6055391;23;20022;-89
2023/01/10 03:28:23;;;;;;;19.20;3.95;;;5.60;99.90;;;;;;6031341;23;20322;-88
2023/01/10 03:31:06;;;;;;;20.08;3.90;;;5.60;99.90;;;;;;6032070;23;20023;-88
2023/01/10 03:33:33;;;;;;;21.85;3.72;;;5.60;99.90;;;;;;6055140;23;20125;-89
2023/01/10 03:36:21;;;;;;;19.60;3.50;;;5.70;99.90;;;;;;6055470;23;20030;-88
2023/01/10 03:39:14;;;;;;;21.45;4.15;;;5.70;99.90;;;;;;6031531;23;20517;-88
2023/01/10 03:41:56;;;;;;;15.30;3.72;;;5.70;99.90;;;;;;6029925;23;20035;-88
2023/01/10 03:44:44;;;;;;;15.88;3.83;;;5.80;99.90;;;;;;6032267;23;20083;-87
2023/01/10 03:47:32;;;;;;;15.75;4.00;;;5.70;99.90;;;;;;6031636;23;20487;-89
2023/01/10 03:50:16;;;;;;;20.02;4.40;;;5.80;99.90;;;;;;6056410;23;20097;-88
2023/01/10 03:52:42;;;;;;;19.13;3.85;;;5.80;99.90;;;;;;6030406;23;20464;-89
2023/01/10 03:55:11;;;;;;;21.08;4.65;;;5.80;99.90;;;;;;6031950;23;20504;-88
2023/01/10 03:57:41;;;;;;;16.63;3.55;;;5.90;99.90;;;;;;6031811;23;20015;-88
2023/01/10 04:00:09;;;;;;;19.25;4.25;;;5.80;99.90;;;;;;6031864;23;20019;-88
2023/01/10 04:02:34;;;;;;;13.30;3.33;;;5.80;99.90;;;;;;6031720;23;20026;-89
2023/01/10 04:05:00;;;;;;;12.43;3.30;;;5.80;99.90;;;;;;6031638;23;20099;-87
2023/01/10 04:07:26;;;;;;;18.17;3.53;;;5.80;99.90;;;;;;6054478;23;20019;-87
2023/01/10 04:09:53;;;;;;;20.10;4.03;;;5.70;99.90;;;;;;6031363;23;20146;-87
2023/01/10 04:12:22;;;;;;;16.25;3.65;;;5.70;99.90;;;;;;6032390;23;20018;-89
2023/01/10 04:14:47;;;;;;;11.93;3.03;;;5.60;99.90;;;;;;6032289;23;20025;-88
2023/01/10 04:17:14;;;;;;;16.15;3.63;;;5.60;99.90;;;;;;6031676;23;20119;-87
2023/01/10 04:19:40;;;;;;;20.67;3.90;;;5.60;99.90;;;;;;6031449;23;20031;-88
2023/01/10 04:22:06;;;;;;;13.32;3.58;;;5.50;99.90;;;;;;6054188;23;20022;-89
2023/01/10 04:24:32;;;;;;;19.23;4.22;;;5.40;99.90;;;;;;6054568;23;20022;-87
2023/01/10 04:26:58;;;;;;;16.33;3.67;;;5.40;99.90;;;;;;6031275;23;20018;-90
2023/01/10 04:29:26;;;;;;;20.92;4.03;;;5.40;99.90;;;;;;6055314;23;20576;-88
2023/01/10 04:31:52;;;;;;;22.25;4.22;;;5.50;99.90;;;;;;6031140;23;20216;-89
2023/01/10 04:34:19;;;;;;;22.85;4.53;;;5.50;99.90;;;;;;6055237;23;20022;-90
2023/01/10 04:36:45;;;;;;;23.75;4.05;;;5.50;99.90;;;;;;6031846;23;20018;-90
2023/01/10 04:39:11;;;;;;;20.33;4.65;;;5.60;99.90;;;;;;6029536;23;20023;-88
2023/01/10 04:41:37;;;;;;;20.30;4.10;;;5.70;99.90;;;;;;6032523;23;20123;-88
2023/01/10 04:44:06;;;;;;;22.33;4.13;;;5.70;99.90;;;;;;6031799;23;20421;-87
2023/01/10 04:46:32;;;;;;;18.25;3.70;;;5.70;99.90;;;;;;6031399;23;20417;-90
2023/01/10 04:48:58;;;;;;;19.80;4.20;;;5.80;99.90;;;;;;6055439;23;20018;-89
2023/01/10 04:51:25;;;;;;;21.60;4.30;;;5.80;99.90;;;;;;6055285;23;20090;-89
2023/01/10 04:53:51;;;;;;;22.63;4.40;;;5.80;99.90;;;;;;6055047;23;20015;-90
2023/01/10 04:56:21;;;;;;;17.75;5.07;;;5.80;99.90;;;;;;6030844;23;20015;-89
2023/01/10 04:58:48;;;;;;;18.27;4.47;;;5.90;99.90;;;;;;6030772;23;20377;-87
2023/01/10 05:01:26;;;;;;;20.77;4.55;;;5.90;99.90;;;;;;6055255;23;20023;-88
2023/01/10 05:03:54;;;;;;;14.88;4.05;;;6.00;99.90;;;;;;6031712;23;20374;-87
2023/01/10 05:06:21;;;;;;;15.25;3.90;;;6.10;99.90;;;;;;6031967;23;20022;-87
2023/01/10 05:08:47;;;;;;;16.55;4.07;;;6.10;99.90;;;;;;6030912;23;20017;-89
2023/01/10 05:11:13;;;;;;;23.77;4.10;;;6.10;99.90;;;;;;6031692;23;20097;-88
2023/01/10 05:13:39;;;;;;;20.55;4.10;;;6.10;99.90;;;;;;6031423;23;20396;-88
2023/01/10 05:16:05;;;;;;;17.88;3.97;;;6.10;99.90;;;;;;6054212;23;20022;-88
2023/01/10 05:18:34;;;;;;;19.45;3.72;;;6.10;99.90;;;;;;6055256;23;20041;-90
2023/01/10 05:21:00;;;;;;;17.33;4.18;;;6.00;99.90;;;;;;6031933;23;20474;-89
2023/01/10 05:23:27;;;;;;;19.55;4.35;;;6.00;99.90;;;;;;6054578;23;20015;-90
2023/01/10 05:25:56;;;;;;;14.60;4.22;;;6.00;99.90;;;;;;6031463;23;20105;-90
2023/01/10 05:28:21;;;;;;;19.90;5.28;;;6.00;99.90;;;;;;6031034;23;20011;-89
2023/01/10 05:30:47;;;;;;;23.75;5.93;;;6.00;99.90;;;;;;6031534;23;20582;-88
2023/01/10 05:33:13;;;;;;;24.63;5.25;;;6.00;99.90;;;;;;6031046;23;20970;-89
2023/01/10 05:35:38;;;;;;;16.42;5.40;;;6.10;99.90;;;;;;6032173;23;20011;-90
2023/01/10 05:38:04;;;;;;;21.92;5.80;;;6.10;99.90;;;;;;6031253;23;20007;-88
2023/01/10 05:40:29;;;;;;;22.23;5.45;;;6.10;99.90;;;;;;6030997;23;20019;-88
2023/01/10 05:42:55;;;;;;;22.40;5.55;;;6.20;99.90;;;;;;6031494;23;20026;-90
2023/01/10 05:45:21;;;;;;;27.17;5.93;;;6.30;99.90;;;;;;6031809;23;20118;-88
2023/01/10 05:47:46;;;;;;;22.00;6.35;;;6.30;99.90;;;;;;6030338;23;20027;-88
2023/01/10 05:50:12;;;;;;;21.15;5.88;;;6.20;99.90;;;;;;6030595;23;20026;-89
2023/01/10 05:52:39;;;;;;;21.70;6.35;;;6.20;99.90;;;;;;6030500;23;20135;-89
2023/01/10 05:55:05;;;;;;;23.63;6.03;;;6.20;99.90;;;;;;6054089;23;20018;-91
2023/01/10 05:57:30;;;;;;;25.42;7.35;;;6.20;99.90;;;;;;6030968;23;20018;-89
2023/01/10 05:59:56;;;;;;;19.95;6.15;;;6.20;99.90;;;;;;6031020;23;20476;-91
2023/01/10 06:02:22;;;;;;;20.77;5.65;;;6.30;99.90;;;;;;6030366;23;20026;-88
2023/01/10 06:04:48;;;;;;;24.30;5.40;;;6.30;99.90;;;;;;6031541;23;20094;-87
2023/01/10 06:07:14;;;;;;;14.80;5.55;;;6.30;99.90;;;;;;6053485;23;20023;-89
2023/01/10 06:09:42;;;;;;;23.52;5.20;;;6.30;99.90;;;;;;6030638;23;20203;-88
2023/01/10 06:12:08;;;;;;;23.20;5.85;;;6.30;99.90;;;;;;6031281;23;20023;-88
2023/01/10 06:14:34;;;;;;;19.95;4.82;;;6.30;99.90;;;;;;6055605;23;20015;-88
2023/01/10 06:16:59;;;;;;;18.90;4.85;;;6.30;99.90;;;;;;6030672;23;20022;-88
2023/01/10 06:19:25;;;;;;;22.02;5.30;;;6.30;99.90;;;;;;6054561;23;20070;-90
2023/01/10 06:21:51;;;;;;;22.25;5.72;;;6.30;99.90;;;;;;6031368;23;20133;-89
2023/01/10 06:24:22;;;;;;;17.23;5.03;;;6.30;99.90;;;;;;6030039;23;20338;-87
2023/01/10 06:26:50;;;;;;;19.83;4.32;;;6.30;99.90;;;;;;6055110;23;20146;-89
2023/01/10 06:29:16;;;;;;;17.63;5.22;;;6.30;99.90;;;;;;6032453;23;20011;-89
2023/01/10 06:31:42;;;;;;;17.02;4.15;;;6.30;99.90;;;;;;6057197;23;20037;-89
2023/01/10 06:34:07;;;;;;;22.10;4.60;;;6.30;99.90;;;;;;6032357;23;20474;-88
2023/01/10 06:36:33;;;;;;;21.88;4.57;;;6.40;99.90;;;;;;6032695;23;20015;-90
2023/01/10 06:38:58;;;;;;;18.75;3.63;;;6.30;99.90;;;;;;6056033;23;20038;-88
2023/01/10 06:41:24;;;;;;;16.58;4.25;;;6.30;99.90;;;;;;6056760;23;20389;-90
2023/01/10 06:43:50;;;;;;;10.90;2.88;;;6.30;99.90;;;;;;6032533;23;20688;-87
2023/01/10 06:46:18;;;;;;;10.48;3.13;;;6.30;99.90;;;;;;6032971;23;20023;-89
2023/01/10 06:48:44;;;;;;;13.80;2.70;;;6.20;99.90;;;;;;6032423;23;20085;-88
2023/01/10 06:51:12;;;;;;;12.60;3.03;;;6.00;99.90;;;;;;6032490;23;20019;-88
2023/01/10 06:53:37;;;;;;;13.18;3.40;;;6.00;99.90;;;;;;6030950;23;20019;-88
2023/01/10 06:56:04;;;;;;;13.25;3.15;;;5.90;99.90;;;;;;6032382;23;20022;-88
2023/01/10 06:58:31;;;;;;;12.77;3.20;;;5.80;99.90;;;;;;6056146;23;20019;-87
2023/01/10 07:00:57;;;;;;;14.52;3.90;;;5.80;99.90;;;;;;6056966;23;20086;-89
2023/01/10 07:03:23;;;;;;;18.67;4.72;;;5.60;99.90;;;;;;6032296;23;20023;-87
2023/01/10 07:05:49;;;;;;;12.98;3.92;;;5.70;99.90;;;;;;6056327;23;20058;-88
2023/01/10 07:08:15;;;;;;;14.07;3.95;;;5.80;99.90;;;;;;6030931;23;20421;-89
2023/01/10 07:10:43;;;;;;;20.48;5.43;;;5.80;99.90;;;;;;6031786;23;20401;-89
2023/01/10 07:13:09;;;;;;;18.50;4.63;;;5.90;99.90;;;;;;6031843;23;20539;-87
2023/01/10 07:15:35;;;;;;;20.52;5.13;;;6.00;99.90;;;;;;6031768;23;20041;-88
2023/01/10 07:18:01;;;;;;;18.23;4.63;;;6.00;99.90;;;;;;6032024;23;20670;-89
2023/01/10 07:20:27;;;;;;;22.00;5.40;;;6.10;99.90;;;;;;6032367;23;20030;-89
2023/01/10 07:23:02;;;;;;;20.48;5.15;;;6.20;99.90;;;;;;6031648;23;20545;-89
2023/01/10 07:25:28;;;;;;;;;;;6.10;99.90;;;;;;6031951;23;20200;-88
2023/01/10 07:27:56;;;;;;;21.33;5.45;;;6.10;99.90;;;;;;6055761;23;19920;-90
2023/01/10 07:30:23;;;;;;;18.60;5.00;;;6.20;99.90;;;;;;6032068;23;20101;-90
2023/01/10 07:32:56;;;;;;;23.42;6.20;;;6.20;99.90;;;;;;6031899;23;20086;-89
2023/01/10 07:35:22;;;;;;;29.05;6.03;;;6.20;99.90;;;;;;6055527;23;20536;-88
2023/01/10 07:37:48;;;;;;;23.52;5.70;;;6.20;99.90;;;;;;6030809;23;20029;-89
2023/01/10 07:40:13;;;;;;;23.98;6.38;;;6.30;99.90;;;;;;6029849;23;20349;-89
2023/01/10 07:42:39;;;;;;;28.98;6.90;;;6.30;99.90;;;;;;6030993;23;20014;-88
2023/01/10 07:45:07;;;;;;;23.65;6.40;;;6.20;99.90;;;;;;6031712;23;20441;-89
2023/01/10 07:47:33;;;;;;;26.02;5.82;;;6.20;99.90;;;;;;6054002;23;20097;-91
2023/01/10 07:49:59;;;;;;;24.88;6.75;;;6.30;99.90;;;;;;6055471;23;20105;-88
2023/01/10 07:52:25;;;;;;;24.90;6.13;;;6.20;99.90;;;;;;6030658;23;20438;-91
2023/01/10 07:54:52;;;;;;;33.15;7.25;;;6.20;99.90;;;;;;6055214;23;20018;-88
2023/01/10 07:57:17;;;;;;;24.25;6.05;;;6.20;99.90;;;;;;6031233;23;20086;-88
2023/01/10 07:59:44;;;;;;;25.83;6.00;;;6.10;99.90;;;;;;6031929;23;20247;-91
2023/01/10 08:02:10;;;;;;;24.73;7.65;;;6.20;99.90;;;;;;6031421;23;20328;-89
2023/01/10 08:04:38;;;;;;;25.63;6.55;;;6.20;99.90;;;;;;6054949;23;20014;-87
2023/01/10 08:07:04;;;;;;;31.52;6.88;;;6.20;99.90;;;;;;6030573;23;20022;-88
2023/01/10 08:09:30;;;;;;;24.00;5.63;;;6.10;99.90;;;;;;6054535;23;20121;-88
2023/01/10 08:11:55;;;;;;;22.73;6.80;;;6.10;99.90;;;;;;6031923;23;20289;-89
2023/01/10 08:14:21;;;;;;;35.85;6.13;;;6.10;99.90;;;;;;6032046;23;20457;-88
2023/01/10 08:16:47;;;;;;;32.40;6.90;;;6.10;99.90;;;;;;6055580;23;20531;-88
2023/01/10 08:19:15;;;;;;;24.80;6.05;;;6.10;99.90;;;;;;6031574;23;20029;-88
2023/01/10 08:21:44;;;;;;;29.10;7.05;;;6.10;99.90;;;;;;6032895;23;20019;-89
2023/01/10 08:24:10;;;;;;;25.30;5.57;;;6.10;99.90;;;;;;6030957;23;20073;-88
2023/01/10 08:26:35;;;;;;;33.38;6.13;;;6.10;99.90;;;;;;6056625;23;20026;-89
2023/01/10 08:29:01;;;;;;;29.25;5.43;;;6.10;99.90;;;;;;6031980;23;20113;-87
2023/01/10 08:31:27;;;;;;;24.02;6.20;;;6.10;99.90;;;;;;6055287;23;20351;-89
2023/01/10 08:33:53;;;;;;;31.35;6.07;;;6.10;99.90;;;;;;6031841;23;20373;-88
2023/01/10 08:36:23;;;;;;;31.38;5.72;;;6.10;99.90;;;;;;6030508;23;20022;-87
2023/01/10 08:38:49;;;;;;;34.05;5.85;;;6.10;99.90;;;;;;6030652;23;20034;-87
2023/01/10 08:41:15;;;;;;;29.42;6.43;;;6.10;99.90;;;;;;6030544;23;20011;-88
2023/01/10 08:43:41;;;;;;;29.02;5.93;;;6.10;99.90;;;;;;6031050;23;20116;-89
2023/01/10 08:46:07;;;;;;;31.30;5.47;;;6.10;99.90;;;;;;6031829;23;20092;-88
2023/01/10 08:48:32;;;;;;;24.55;5.10;;;6.10;99.90;;;;;;6030928;23;20069;-88
2023/01/10 08:51:08;;;;;;;27.27;6.20;;;6.10;99.90;;;;;;6055499;23;20330;-89
2023/01/10 08:53:34;;;;;;;22.33;5.18;;;6.10;99.90;;;;;;6029311;23;20015;-88
2023/01/10 08:56:00;;;;;;;20.90;5.35;;;6.10;99.90;;;;;;6028229;23;20023;-88
2023/01/10 08:58:26;;;;;;;24.40;5.35;;;6.10;99.90;;;;;;6055423;23;20094;-88
2023/01/10 09:00:54;;;;;;;23.98;5.50;;;6.20;99.90;;;;;;6026799;23;20018;-89
2023/01/10 09:03:20;;;;;;;28.65;5.70;;;6.20;99.90;;;;;;6029548;23;20424;-90
2023/01/10 09:05:45;;;;;;;22.30;5.30;;;6.20;99.90;;;;;;6055565;23;20026;-88
2023/01/10 09:08:11;;;;;;;24.83;6.47;;;6.30;99.90;;;;;;6031565;23;20341;-90
2023/01/10 09:10:37;;;;;;;32.33;5.47;;;6.30;99.90;;;;;;6031362;23;20042;-88
2023/01/10 09:13:03;;;;;;;29.73;5.78;;;6.50;99.90;;;;;;6031657;23;20018;-87
2023/01/10 09:15:32;;;;;;;28.73;6.15;;;6.50;99.90;;;;;;6056007;23;20022;-89
2023/01/10 09:18:04;;;;;;;29.75;6.03;;;6.70;99.90;;;;;;6030804;23;20358;-90
2023/01/10 09:20:31;;;;;;;27.52;6.07;;;6.70;99.90;;;;;;6055593;23;20023;-89
2023/01/10 09:23:16;;;;;;;29.70;6.28;;;6.80;99.90;;;;;;5105682;27;20425;-91
2023/01/10 09:25:42;;;;;;;24.00;5.50;;;6.90;99.90;;;;;;5085909;28;20043;-90
2023/01/10 09:28:08;;;;;;;21.83;5.55;;;6.90;99.90;;;;;;5097437;28;20461;-89
2023/01/10 09:30:34;;;;;;;20.20;5.50;;;6.90;99.90;;;;;;5101846;28;20443;-91
2023/01/10 09:33:00;;;;;;;22.98;6.20;;;6.90;99.90;;;;;;5096338;28;20429;-90
2023/01/10 09:35:28;;;;;;;27.13;7.20;;;6.90;99.90;;;;;;5095789;28;20032;-89
2023/01/10 09:37:59;;;;;;;26.85;6.38;;;6.90;99.90;;;;;;5097642;28;20047;-88
2023/01/10 09:40:50;;;;;;;30.25;5.43;;;6.90;99.90;;;;;;5080577;28;20174;-90
2023/01/10 09:43:27;;;;;;;32.50;5.70;;;6.80;99.90;;;;;;5099605;28;20320;-90
2023/01/10 09:46:05;;;;;;;19.38;5.85;;;6.90;99.90;;;;;;5096502;28;20047;-88
2023/01/10 09:48:55;;;;;;;18.33;5.07;;;6.90;99.90;;;;;;5098273;28;20116;-89
2023/01/10 09:51:34;;;;;;;23.23;5.03;;;6.80;99.90;;;;;;5101514;28;20204;-89
2023/01/10 09:54:04;;;;;;;22.40;6.00;;;6.90;99.90;;;;;;5092660;28;20407;-90
2023/01/10 09:56:31;;;;;;;27.30;5.20;;;6.90;99.90;;;;;;5098083;28;20035;-88
2023/01/10 09:58:59;;;;;;;25.52;5.75;;;6.80;99.90;;;;;;5081657;28;20520;-89
2023/01/10 10:01:31;;;;;;;21.35;5.15;;;6.90;99.90;;;;;;5079657;28;20066;-88
2023/01/10 10:04:27;;;;;;;17.75;4.65;;;6.90;99.90;;;;;;5085603;28;20092;-89
2023/01/10 10:06:53;;;;;;;19.98;5.05;;;6.90;99.90;;;;;;5098736;28;20033;-89
2023/01/10 10:09:30;;;;;;;21.90;5.05;;;7.00;99.90;;;;;;5081902;28;20258;-89
2023/01/10 10:12:21;;;;;;;22.55;4.82;;;7.00;99.90;;;;;;5081990;28;20375;-89
2023/01/10 10:15:07;;;;;;;21.25;4.95;;;7.00;99.90;;;;;;5095643;28;20109;-89
2023/01/10 10:17:59;;;;;;;28.85;5.05;;;7.10;99.90;;;;;;5093025;28;20063;-89
2023/01/10 10:20:45;;;;;;;30.17;5.97;;;7.10;99.90;;;;;;5098820;28;20036;-90
2023/01/10 10:23:30;;;;;;;23.85;5.35;;;7.10;99.90;;;;;;5081428;28;20123;-88
2023/01/10 10:26:15;;;;;;;;;;;7.10;99.90;;;;;;5096914;28;20063;-90
2023/01/10 10:29:12;;;;;;;20.35;4.55;;;7.10;99.90;;;;;;5097899;28;20299;-89
2023/01/10 10:31:56;;;;;;;22.00;6.40;;;7.10;99.90;;;;;;5098225;28;20497;-89
2023/01/10 10:34:36;;;;;;;24.33;5.78;;;7.20;99.90;;;;;;5068122;28;20126;-90
2023/01/10 10:37:21;;;;;;;20.92;6.60;;;7.30;99.90;;;;;;5079257;28;21282;-89
2023/01/10 10:40:14;;;;;;;17.55;5.03;;;7.30;99.90;;;;;;5067413;28;20192;-90
2023/01/10 10:42:46;;;;;;;23.45;5.78;;;7.20;99.90;;;;;;5069009;28;20475;-91
2023/01/10 10:45:30;;;;;;;20.08;5.25;;;7.30;99.90;;;;;;5069116;28;20410;-90
2023/01/10 10:48:02;;;;;;;25.70;5.10;;;7.30;99.90;;;;;;5066914;28;20105;-87
2023/01/10 10:50:33;;;;;;;18.08;5.05;;;7.40;99.90;;;;;;5084557;28;20285;-89
2023/01/10 10:53:01;;;;;;;18.63;6.38;;;7.40;99.90;;;;;;5084227;28;20084;-89
2023/01/10 10:55:36;;;;;;;25.10;4.90;;;7.50;99.90;;;;;;5081289;28;20246;-89
2023/01/10 10:58:03;;;;;;;15.57;4.85;;;7.40;99.90;;;;;;5069433;28;20032;-88
2023/01/10 11:00:30;;;;;;;19.90;5.88;;;7.50;99.90;;;;;;5094869;27;20289;-90
2023/01/10 11:03:00;;;;;;;25.60;6.82;;;7.40;99.90;;;;;;5063546;28;20123;-89
2023/01/10 11:05:38;;;;;;;24.55;6.38;;;7.40;99.90;;;;;;5069815;28;20040;-90
2023/01/10 11:08:09;;;;;;;23.50;6.43;;;7.50;99.90;;;;;;5083775;28;20091;-89
2023/01/10 11:10:35;;;;;;;23.90;6.60;;;7.50;99.90;;;;;;5069137;28;20162;-89
2023/01/10 11:13:21;;;;;;;26.58;7.20;;;7.60;99.90;;;;;;5082420;28;20248;-90
2023/01/10 11:15:48;;;;;;;23.98;7.05;;;7.60;99.90;;;;;;5079461;28;20472;-90
2023/01/10 11:18:20;;;;;;;29.73;7.97;;;7.60;99.90;;;;;;5083234;28;20032;-90
2023/01/10 11:21:11;;;;;;;19.40;7.30;;;7.60;99.90;;;;;;5083943;28;20043;-89
2023/01/10 11:24:22;;;;;;;27.02;8.65;;;7.60;99.90;;;;;;5081047;28;20043;-90
2023/01/10 11:26:48;;;;;;;27.52;8.35;;;7.60;99.90;;;;;;5047786;28;20097;-89
2023/01/10 11:29:24;;;;;;;27.38;7.63;;;7.70;99.90;;;;;;5080063;28;20044;-90
2023/01/10 11:31:52;;;;;;;31.58;9.52;;;7.70;99.90;;;;;;5068005;28;20052;-90
2023/01/10 11:34:28;;;;;;;29.92;9.20;;;7.70;99.90;;;;;;5076942;28;20058;-88
2023/01/10 11:37:03;;;;;;;21.77;8.65;;;7.70;99.90;;;;;;5063454;28;20075;-89
2023/01/10 11:39:29;;;;;;;;;;;7.60;99.90;;;;;;5103702;27;20678;-88
2023/01/10 11:41:57;;;;;;;31.60;8.88;;;7.60;99.90;;;;;;5067952;28;20496;-89
2023/01/10 11:44:28;;;;;;;31.52;9.52;;;7.60;99.90;;;;;;5063187;28;20101;-90
2023/01/10 11:46:57;;;;;;;26.58;9.25;;;7.60;99.90;;;;;;5063571;28;20551;-89
2023/01/10 11:49:33;;;;;;;25.70;9.05;;;7.60;99.90;;;;;;5066892;28;20079;-90
2023/01/10 11:52:20;;;;;;;23.58;8.77;;;7.50;99.90;;;;;;5078874;28;20036;-89
2023/01/10 11:54:47;;;;;;;28.08;8.55;;;7.50;99.90;;;;;;5064251;28;20043;-89
2023/01/10 11:57:19;;;;;;;29.90;9.55;;;7.50;99.90;;;;;;5065502;28;20088;-90
2023/01/10 12:00:13;;;;;;;33.40;10.40;;;7.50;99.90;;;;;;5080709;28;20047;-89
2023/01/10 12:02:43;;;;;;;25.05;9.30;;;7.50;99.90;;;;;;5067857;28;20085;-90
2023/01/10 12:05:16;;;;;;;28.80;9.23;;;7.50;99.90;;;;;;5066588;28;20074;-89
2023/01/10 12:08:05;;;;;;;23.42;8.73;;;7.50;99.90;;;;;;5080340;28;20036;-90
2023/01/10 12:10:34;;;;;;;26.80;9.18;;;7.50;99.90;;;;;;5082999;28;20042;-89
2023/01/10 12:13:12;;;;;;;23.00;8.30;;;7.40;99.90;;;;;;5080391;28;20071;-89
2023/01/10 12:15:38;;;;;;;25.92;8.07;;;7.40;99.90;;;;;;5083121;28;20035;-89
2023/01/10 12:18:05;;;;;;;32.38;9.20;;;7.40;99.90;;;;;;5081377;28;20040;-90
2023/01/10 12:20:38;;;;;;;29.60;8.30;;;7.40;99.90;;;;;;5066570;28;20047;-89
2023/01/10 12:23:09;;;;;;;33.28;8.82;;;7.30;99.90;;;;;;5080600;28;20054;-90
2023/01/10 12:25:39;;;;;;;32.05;10.52;;;7.30;99.90;;;;;;5065486;28;20032;-88
2023/01/10 12:28:23;;;;;;;33.25;8.45;;;7.40;99.90;;;;;;5065043;28;20043;-90
2023/01/10 12:30:52;;;;;;;24.98;7.60;;;7.30;99.90;;;;;;5078157;28;20040;-89
2023/01/10 12:33:33;;;;;;;30.65;8.65;;;7.30;99.90;;;;;;5077045;28;20035;-90
2023/01/10 12:36:11;;;;;;;27.67;7.28;;;7.30;99.90;;;;;;5080444;28;20293;-89
2023/01/10 12:39:03;;;;;;;23.63;6.65;;;7.30;99.90;;;;;;5066660;28;20032;-90
2023/01/10 12:44:38;;;;;;;25.15;6.80;;;7.30;99.90;;;;;;5099456;27;20047;-88
2023/01/10 12:47:32;;;;;;;25.58;7.13;;;7.20;99.90;;;;;;5074700;28;20422;-89
2023/01/10 12:50:01;;;;;;;19.13;5.82;;;7.30;99.90;;;;;;5080815;28;20102;-89
2023/01/10 12:52:48;;;;;;;25.15;7.10;;;7.20;99.90;;;;;;5094415;28;20115;-89
2023/01/10 12:55:16;;;;;;;23.60;7.22;;;7.20;99.90;;;;;;5064415;28;20044;-90
2023/01/10 12:57:47;;;;;;;27.15;7.35;;;7.20;99.90;;;;;;5057459;28;20063;-90
2023/01/10 13:00:20;;;;;;;24.25;7.00;;;7.20;99.90;;;;;;5066849;28;20054;-88
2023/01/10 13:02:48;;;;;;;23.80;7.63;;;7.20;99.90;;;;;;5080205;28;20036;-88
2023/01/10 13:05:22;;;;;;;23.50;5.88;;;7.20;99.90;;;;;;5080603;28;20433;-91
2023/01/10 13:08:09;;;;;;;20.10;5.85;;;7.20;99.90;;;;;;5075315;28;20073;-90
2023/01/10 13:10:40;;;;;;;21.27;5.80;;;7.10;99.90;;;;;;5069394;28;20032;-89
2023/01/10 13:13:19;;;;;;;24.92;6.15;;;7.20;99.90;;;;;;5075812;28;20154;-90
2023/01/10 13:16:09;;;;;;;19.17;5.90;;;7.10;99.90;;;;;;5072337;28;20051;-89
2023/01/10 13:18:34;;;;;;;19.88;5.32;;;7.10;99.90;;;;;;5065998;28;20486;-88
2023/01/10 13:21:13;;;;;;;23.30;6.05;;;7.20;99.90;;;;;;5078319;28;20036;-89